Rhuddlan, United Kingdom
Current Conditions -  °F | °C
As of 10:20 AM on Wednesday 26 Nov 2014 (Local Time) from EGNR Reporting Station
Light Rain Light Rain  
Wind Chill:   Ceiling: 1500
Heat Index:   Visibility: 1mi
Dew Point:   Wind: 5mph
Humidity: 100%   Direction: 340°NNW
Pressure: 29.94"   Gusts: NA
Location:  53.28°N, 3.47°W
Report Text: EGNR 261020Z 34004KT 1700 -RA BR OVC015 07/07 Q1014
Loading
Personal Weather Stations






























Interactive Weather Map New forecast layout! Learn more

10-Day Weather Forecast

Advertisements
Track Severe Weather on mobile